Time;durP1;ratioP1;P1;durP2;ratioP2;P2;SDS_P1;SDS_P2;PMS_P1;PMS_P2;Temp;Humidity;BMP_temperature;BMP_pressure;BME280_temperature;BME280_humidity;BME280_pressure;Samples;Min_cycle;Max_cycle;Signal;HPM_P1;HPM_P2
2022/07/12 00:00:47;;;;;;;3.67;3.37;;;;;;;22.14;51.89;99389.34;7010875;28;20205;-81
2022/07/12 00:04:09;;;;;;;3.53;3.27;;;;;;;22.06;51.63;99387.09;7009881;28;20260;-81
2022/07/12 00:07:30;;;;;;;3.93;3.20;;;;;;;22.09;51.60;99392.06;7009875;28;20692;-81
2022/07/12 00:10:52;;;;;;;3.20;3.00;;;;;;;21.87;52.00;99400.41;7009734;28;20292;-81
2022/07/12 00:14:14;;;;;;;4.03;3.27;;;;;;;21.48;52.56;99357.78;7008407;28;20234;-81
2022/07/12 00:17:38;;;;;;;3.80;3.00;;;;;;;21.95;51.93;99402.66;7008373;28;20251;-81
2022/07/12 00:20:59;;;;;;;3.17;2.97;;;;;;;21.94;51.56;99383.69;7008772;28;20680;-81
2022/07/12 00:24:21;;;;;;;3.97;3.47;;;;;;;22.06;51.19;99412.63;7008381;28;20263;-81
2022/07/12 00:27:42;;;;;;;6.67;3.00;;;;;;;21.92;51.65;99392.22;7008336;28;20218;-81
2022/07/12 00:31:04;;;;;;;4.00;2.97;;;;;;;21.68;51.93;99388.19;7008540;28;20203;-81
2022/07/12 00:34:27;;;;;;;3.50;3.20;;;;;;;21.75;52.21;99408.00;7017980;28;20256;-81
2022/07/12 00:37:49;;;;;;;4.30;3.40;;;;;;;22.11;51.04;99385.22;7024137;28;20219;-81
2022/07/12 00:41:10;;;;;;;3.63;3.10;;;;;;;22.33;50.92;99385.91;7009950;28;20210;-81
2022/07/12 00:44:33;;;;;;;3.13;2.93;;;;;;;22.53;50.57;99407.19;7009269;28;20235;-82
2022/07/12 00:47:55;;;;;;;3.30;2.80;;;;;;;22.06;51.62;99406.34;7008318;28;20785;-81
2022/07/12 00:51:18;;;;;;;4.23;3.20;;;;;;;21.98;52.05;99404.91;7008260;28;20209;-81
2022/07/12 00:54:40;;;;;;;3.40;3.20;;;;;;;22.24;51.35;99403.97;7009423;28;20232;-81
2022/07/12 00:58:01;;;;;;;3.50;3.20;;;;;;;22.20;50.67;99405.56;7008179;28;20198;-81
2022/07/12 01:01:23;;;;;;;3.00;2.80;;;;;;;22.23;50.44;99415.22;7008540;28;20207;-81
2022/07/12 01:04:45;;;;;;;3.30;3.00;;;;;;;21.84;51.84;99400.94;7009036;28;20233;-81
2022/07/12 01:08:08;;;;;;;3.40;3.10;;;;;;;21.27;53.65;99398.22;7008878;28;20198;-80
2022/07/12 01:11:30;;;;;;;4.87;3.30;;;;;;;21.32;53.43;99412.81;7009249;28;20666;-81
2022/07/12 01:14:52;;;;;;;3.00;2.80;;;;;;;21.40;53.31;99424.13;7010203;28;20248;-81
2022/07/12 01:18:14;;;;;;;3.20;2.90;;;;;;;21.22;54.40;99420.09;7011335;28;20289;-80
2022/07/12 01:21:39;;;;;;;3.87;3.07;;;;;;;21.10;54.34;99401.03;7011606;28;20575;-81
2022/07/12 01:25:03;;;;;;;3.20;2.97;;;;;;;21.41;53.22;99405.72;7008967;28;20233;-81
2022/07/12 01:28:24;;;;;;;3.70;3.10;;;;;;;21.37;53.01;99404.63;7006904;28;20297;-81
2022/07/12 01:31:46;;;;;;;3.43;3.13;;;;;;;21.33;53.39;99419.13;7007193;28;20355;-81
2022/07/12 01:35:08;;;;;;;3.57;3.17;;;;;;;21.04;53.51;99384.81;7008420;28;20221;-81
2022/07/12 01:38:30;;;;;;;3.50;3.20;;;;;;;21.16;54.09;99418.41;7014436;28;20202;-81
2022/07/12 01:41:53;;;;;;;3.73;3.27;;;;;;;20.90;53.63;99387.13;7018866;28;20263;-81
2022/07/12 01:45:14;;;;;;;4.37;3.30;;;;;;;20.97;53.79;99417.06;7008099;28;20229;-80
2022/07/12 01:48:36;;;;;;;3.60;3.07;;;;;;;20.93;54.12;99426.91;7007657;28;20272;-80
2022/07/12 01:51:59;;;;;;;2.90;2.70;;;;;;;20.96;53.80;99419.00;7007256;28;20267;-81
2022/07/12 01:55:20;;;;;;;3.60;3.30;;;;;;;20.77;54.12;99423.94;7006641;28;20706;-81
2022/07/12 01:58:43;;;;;;;3.40;3.10;;;;;;;20.84;54.34;99421.03;7007332;28;20674;-81
2022/07/12 02:02:05;;;;;;;3.20;3.00;;;;;;;20.56;54.29;99428.59;7006528;28;20201;-81
2022/07/12 02:05:26;;;;;;;3.63;3.37;;;;;;;20.16;55.61;99406.94;7006812;28;20230;-80
2022/07/12 02:13:05;;;;;;;4.40;3.00;;;;;;;20.09;55.96;99398.09;7006426;28;20205;-80
2022/07/12 02:16:28;;;;;;;3.40;3.13;;;;;;;20.07;55.79;99388.47;7006027;28;20254;-80
2022/07/12 02:24:06;;;;;;;3.83;3.40;;;;;;;19.91;56.68;99409.28;7006250;28;20666;-81
2022/07/12 02:27:28;;;;;;;3.53;3.23;;;;;;;20.09;56.52;99419.16;7005953;28;20190;-80
2022/07/12 02:30:50;;;;;;;3.60;3.30;;;;;;;19.47;57.67;99410.22;7006374;28;20237;-81
2022/07/12 02:34:12;;;;;;;3.30;3.00;;;;;;;19.78;57.12;99408.78;7008944;28;20623;-80
2022/07/12 02:37:34;;;;;;;3.00;2.80;;;;;;;19.93;56.60;99415.31;7025920;28;20233;-81
2022/07/12 02:40:56;;;;;;;3.27;3.07;;;;;;;20.00;56.55;99401.47;7006754;28;20294;-81
2022/07/12 02:44:17;;;;;;;3.77;3.27;;;;;;;19.57;57.10;99417.75;7006156;28;20279;-80
2022/07/12 02:47:40;;;;;;;3.10;2.80;;;;;;;19.22;57.57;99371.47;7005503;28;20279;-81
2022/07/12 02:51:03;;;;;;;3.57;3.27;;;;;;;19.46;58.01;99419.47;7005939;28;20203;-81
2022/07/12 02:54:25;;;;;;;4.47;3.33;;;;;;;18.88;58.63;99393.47;7005617;28;20236;-81
2022/07/12 02:57:48;;;;;;;3.40;3.13;;;;;;;18.98;59.03;99399.16;7004898;28;20210;-81
2022/07/12 03:01:11;;;;;;;4.40;2.97;;;;;;;19.41;58.03;99402.97;7006432;28;20221;-80
2022/07/12 03:04:32;;;;;;;3.40;3.10;;;;;;;19.42;57.58;99418.31;7006548;28;20700;-81
2022/07/12 03:07:55;;;;;;;3.47;3.17;;;;;;;19.37;57.56;99417.38;7008585;28;20202;-80
2022/07/12 03:11:17;;;;;;;4.07;2.97;;;;;;;19.48;57.45;99430.16;7007882;28;20666;-81
2022/07/12 03:14:38;;;;;;;3.63;3.33;;;;;;;19.65;57.10;99436.50;7008891;28;20224;-80
2022/07/12 03:18:01;;;;;;;2.90;2.70;;;;;;;19.91;55.79;99433.06;7010308;28;20685;-81
2022/07/12 03:21:22;;;;;;;3.00;2.43;;;;;;;19.63;56.15;99420.31;7010829;28;20224;-80
2022/07/12 03:24:45;;;;;;;3.53;3.23;;;;;;;19.09;56.09;99398.25;7010424;28;20327;-81
2022/07/12 03:28:07;;;;;;;3.80;2.90;;;;;;;19.15;57.33;99435.53;7009697;28;20296;-81
2022/07/12 03:31:28;;;;;;;3.53;3.23;;;;;;;19.05;57.67;99432.63;7010101;28;20555;-81
2022/07/12 03:34:50;;;;;;;3.33;3.13;;;;;;;18.94;58.57;99428.88;7009985;28;20306;-81
2022/07/12 03:38:12;;;;;;;4.10;3.80;;;;;;;19.17;57.57;99438.88;7009862;28;20247;-81
2022/07/12 03:41:35;;;;;;;8.93;7.50;;;;;;;19.31;56.89;99449.28;7009790;28;20651;-81
2022/07/12 03:44:56;;;;;;;3.13;2.80;;;;;;;18.89;58.06;99455.25;7009318;28;20788;-81
2022/07/12 03:48:18;;;;;;;3.20;2.90;;;;;;;18.70;58.54;99449.13;7010226;28;20242;-81
2022/07/12 03:51:39;;;;;;;3.43;3.13;;;;;;;18.69;58.22;99428.34;7011077;28;20292;-81
2022/07/12 03:55:02;;;;;;;3.10;2.90;;;;;;;19.40;56.27;99464.22;7011159;28;20232;-81
2022/07/12 03:58:25;;;;;;;2.73;2.53;;;;;;;19.04;56.66;99453.66;7010014;28;20213;-81
2022/07/12 04:01:46;;;;;;;2.70;2.50;;;;;;;19.26;55.94;99448.34;7009598;28;20263;-81
2022/07/12 04:05:09;;;;;;;2.77;2.57;;;;;;;19.15;55.97;99476.53;7009032;28;20278;-81
2022/07/12 04:08:30;;;;;;;3.00;2.80;;;;;;;19.14;56.82;99485.81;7008674;28;20202;-81
2022/07/12 04:11:52;;;;;;;3.00;2.80;;;;;;;19.28;56.16;99489.97;7009106;28;20291;-81
2022/07/12 04:15:15;;;;;;;2.83;2.63;;;;;;;19.08;56.10;99470.38;7008144;28;20220;-81
2022/07/12 04:18:36;;;;;;;2.50;2.30;;;;;;;19.30;56.66;99488.66;7005738;28;20730;-81
2022/07/12 04:21:58;;;;;;;2.90;2.70;;;;;;;19.43;55.93;99468.38;7006997;28;20240;-81
2022/07/12 04:25:20;;;;;;;2.67;2.30;;;;;;;19.64;55.39;99490.38;7006995;28;20704;-81
2022/07/12 04:28:41;;;;;;;2.57;2.37;;;;;;;19.70;54.69;99491.31;7007693;28;20683;-81
2022/07/12 04:32:05;;;;;;;2.93;2.30;;;;;;;19.62;55.79;99487.06;7008505;28;20240;-81
2022/07/12 04:35:26;;;;;;;3.27;2.40;;;;;;;19.97;54.41;99486.81;7015710;28;20229;-81
2022/07/12 04:38:48;;;;;;;3.43;2.83;;;;;;;19.66;54.36;99438.97;7021739;28;20231;-83
2022/07/12 04:42:11;;;;;;;2.50;2.30;;;;;;;19.75;54.94;99477.72;7026385;28;20226;-81
2022/07/12 04:45:32;;;;;;;2.70;2.50;;;;;;;19.34;55.58;99437.84;7017350;28;20244;-81
2022/07/12 04:48:55;;;;;;;2.73;2.53;;;;;;;19.41;56.92;99454.13;7012650;28;20214;-81
2022/07/12 04:52:17;;;;;;;3.27;2.57;;;;;;;19.62;57.10;99481.59;7015809;28;20244;-81
2022/07/12 04:55:38;;;;;;;2.40;2.30;;;;;;;19.84;55.83;99492.63;7009850;28;20326;-80
2022/07/12 04:59:00;;;;;;;2.90;2.50;;;;;;;19.88;55.65;99491.06;7008932;28;20209;-81
2022/07/12 05:02:21;;;;;;;2.60;2.40;;;;;;;19.96;55.80;99463.28;7017443;28;20205;-81
2022/07/12 05:05:44;;;;;;;2.57;2.37;;;;;;;20.37;55.30;99490.22;7041648;28;20233;-80
2022/07/12 05:09:06;;;;;;;2.90;2.67;;;;;;;20.72;54.92;99496.22;7040769;28;20213;-79
2022/07/12 05:12:28;;;;;;;3.23;2.40;;;;;;;20.84;54.41;99498.59;7036871;28;20205;-80
2022/07/12 05:15:49;;;;;;;3.13;2.60;;;;;;;21.23;53.02;99482.91;7040030;28;20288;-79
2022/07/12 05:19:11;;;;;;;2.10;2.00;;;;;;;21.79;52.43;99469.56;7041710;28;20282;-80
2022/07/12 05:22:34;;;;;;;3.10;2.20;;;;;;;22.49;49.97;99491.25;7039198;28;20381;-80
2022/07/12 05:25:55;;;;;;;3.17;2.37;;;;;;;22.92;49.00;99494.53;7034655;28;20234;-80
2022/07/12 05:29:17;;;;;;;2.13;1.93;;;;;;;23.30;47.77;99487.84;7034038;28;20205;-80
2022/07/12 05:32:38;;;;;;;2.80;2.60;;;;;;;22.71;49.42;99491.97;7034129;28;20197;-81
2022/07/12 05:36:01;;;;;;;3.00;2.50;;;;;;;21.80;51.91;99509.66;7034869;28;20235;-80
2022/07/12 05:39:24;;;;;;;2.50;2.30;;;;;;;21.93;51.76;99506.47;7033460;28;20703;-81
2022/07/12 05:42:46;;;;;;;2.70;2.50;;;;;;;22.31;50.65;99502.66;7035560;28;20214;-81
2022/07/12 05:46:08;;;;;;;2.87;2.60;;;;;;;22.34;51.11;99494.72;7034497;28;20641;-81
2022/07/12 05:49:30;;;;;;;2.67;2.40;;;;;;;22.98;49.31;99490.72;7035887;28;20206;-80
2022/07/12 05:56:32;;;;;;;2.77;2.57;;;;;;;23.95;46.98;99507.28;7012046;28;20235;-83
2022/07/12 05:59:53;;;;;;;2.90;2.70;;;;;;;23.90;47.16;99499.00;7006072;28;20204;-81
2022/07/12 06:03:16;;;;;;;2.97;2.73;;;;;;;23.16;48.59;99473.75;7031819;28;20227;-81
2022/07/12 06:06:37;;;;;;;2.67;2.47;;;;;;;23.44;48.53;99498.06;7032736;28;20259;-82
2022/07/12 06:09:59;;;;;;;4.43;2.80;;;;;;;23.95;47.60;99518.28;7018220;28;20276;-81
2022/07/12 06:13:22;;;;;;;5.07;3.40;;;;;;;24.16;47.67;99518.03;7006041;28;20262;-81
2022/07/12 06:16:43;;;;;;;3.80;3.43;;;;;;;24.31;47.40;99501.47;7015944;28;20206;-82
2022/07/12 06:20:06;;;;;;;2.77;2.37;;;;;;;25.53;44.85;99518.25;7033426;28;20236;-81
2022/07/12 06:23:27;;;;;;;5.53;2.53;;;;;;;26.86;40.72;99507.53;7006408;28;20234;-81
2022/07/12 06:26:49;;;;;;;3.37;2.70;;;;;;;26.07;41.63;99513.50;7008949;28;20323;-81
2022/07/12 06:30:12;;;;;;;2.60;2.40;;;;;;;26.07;42.10;99516.25;7007732;28;20209;-81
2022/07/12 06:33:34;;;;;;;2.60;2.40;;;;;;;25.33;44.00;99526.66;7007573;28;20218;-81
2022/07/12 06:36:55;;;;;;;2.13;2.03;;;;;;;25.03;45.01;99509.34;7007597;28;20202;-81
2022/07/12 06:40:17;;;;;;;3.13;2.50;;;;;;;24.90;44.15;99519.03;7006475;28;20209;-81
2022/07/12 06:43:39;;;;;;;2.63;2.37;;;;;;;24.70;44.67;99513.56;7010881;28;20220;-80
2022/07/12 06:47:02;;;;;;;1.80;1.70;;;;;;;25.17;43.47;99522.25;7015031;28;20283;-81
2022/07/12 06:50:23;;;;;;;1.63;1.53;;;;;;;26.55;41.81;99495.13;7023582;28;20208;-81
2022/07/12 06:53:45;;;;;;;2.00;1.40;;;;;;;27.96;36.41;99504.13;7022347;28;20214;-81
2022/07/12 06:57:06;;;;;;;1.60;1.20;;;;;;;28.26;36.49;99525.03;7007510;28;20255;-81
2022/07/12 07:00:28;;;;;;;1.00;1.00;;;;;;;27.83;36.12;99471.63;7007397;28;20203;-84
2022/07/12 07:03:51;;;;;;;0.90;0.90;;;;;;;28.71;34.97;99532.59;7006956;28;20223;-82
2022/07/12 07:07:13;;;;;;;1.40;1.30;;;;;;;28.19;35.09;99435.84;7007522;28;20222;-82
2022/07/12 07:10:34;;;;;;;0.80;0.80;;;;;;;28.68;34.86;99519.31;7007663;28;20198;-81
2022/07/12 07:13:56;;;;;;;1.07;0.97;;;;;;;28.31;35.42;99508.31;7014595;28;20237;-81
2022/07/12 07:17:19;;;;;;;0.70;0.70;;;;;;;28.12;34.88;99524.97;7019054;28;20208;-81
2022/07/12 07:20:42;;;;;;;0.60;0.60;;;;;;;27.42;35.48;99534.28;7014848;28;20759;-81
2022/07/12 07:24:04;;;;;;;0.83;0.80;;;;;;;26.13;38.08;99537.22;7017592;28;20221;-81
2022/07/12 07:27:26;;;;;;;0.70;0.70;;;;;;;26.66;37.29;99530.69;7014627;28;20224;-81
2022/07/12 07:30:52;;;;;;;1.03;0.70;;;;;;;26.12;37.29;99560.44;7028878;28;20199;-81
2022/07/12 07:34:14;;;;;;;0.80;0.80;;;;;;;25.93;38.85;99561.41;7023396;28;20228;-81
2022/07/12 07:37:37;;;;;;;0.90;0.90;;;;;;;26.40;38.04;99565.22;7013370;28;20681;-81
2022/07/12 07:40:58;;;;;;;2.23;0.70;;;;;;;26.96;38.09;99558.06;7016836;28;20234;-82
2022/07/12 07:44:20;;;;;;;1.23;1.13;;;;;;;26.98;38.06;99555.84;7024966;28;20228;-81
2022/07/12 07:47:45;;;;;;;0.97;0.97;;;;;;;27.51;36.59;99529.72;7010470;28;20229;-81
2022/07/12 07:51:07;;;;;;;1.33;1.23;;;;;;;27.99;36.68;99553.47;7005577;28;20209;-82
2022/07/12 07:54:30;;;;;;;2.77;1.57;;;;;;;27.04;37.60;99551.06;7016288;28;20220;-81
2022/07/12 07:57:51;;;;;;;3.07;1.50;;;;;;;27.21;38.36;99551.44;7021056;28;20213;-81
2022/07/12 08:01:13;;;;;;;1.47;1.27;;;;;;;27.83;36.80;99538.16;7017536;28;20213;-81
2022/07/12 08:04:34;;;;;;;1.40;1.30;;;;;;;29.29;34.12;99553.97;7034319;28;20226;-82
2022/07/12 08:07:56;;;;;;;1.50;1.17;;;;;;;29.18;34.28;99557.28;7016387;28;20219;-81
2022/07/12 08:11:19;;;;;;;1.40;1.30;;;;;;;28.86;34.39;99554.50;7039277;28;20217;-82
2022/07/12 08:14:40;;;;;;;0.90;0.90;;;;;;;28.93;34.02;99546.59;7033409;28;20262;-82
2022/07/12 08:18:03;;;;;;;0.93;0.93;;;;;;;28.12;35.65;99541.59;7038932;28;20261;-82
2022/07/12 08:21:24;;;;;;;3.40;1.00;;;;;;;27.86;35.35;99537.59;7040147;28;20226;-83
2022/07/12 08:24:46;;;;;;;1.30;1.20;;;;;;;26.56;38.06;99516.13;7038422;28;20255;-83
2022/07/12 08:28:09;;;;;;;1.10;1.03;;;;;;;29.25;33.63;99535.47;7040263;28;20320;-83
2022/07/12 08:31:30;;;;;;;1.07;1.00;;;;;;;29.99;33.23;99516.31;7033001;28;20199;-83
2022/07/12 08:34:52;;;;;;;1.60;1.00;;;;;;;30.95;30.55;99517.50;7011593;28;20266;-83
2022/07/12 08:38:15;;;;;;;2.40;1.03;;;;;;;29.68;32.11;99525.66;7012387;28;20283;-83
2022/07/12 08:41:36;;;;;;;1.13;0.97;;;;;;;29.93;31.64;99530.63;7029656;28;20316;-82
2022/07/12 08:44:59;;;;;;;1.23;0.97;;;;;;;30.73;31.11;99517.53;7012441;28;20721;-83
2022/07/12 08:48:21;;;;;;;0.87;0.80;;;;;;;31.31;29.27;99521.75;7011730;28;20779;-83
2022/07/12 08:51:43;;;;;;;1.37;1.03;;;;;;;29.80;29.90;99539.84;7019772;28;20250;-83
2022/07/12 08:55:17;;;;;;;0.83;0.83;;;;;;;30.05;30.44;99539.25;7039041;28;20225;-81
2022/07/12 08:58:39;;;;;;;0.73;0.70;;;;;;;30.39;29.14;99536.78;7011181;28;20196;-81
2022/07/12 09:02:02;;;;;;;1.00;0.90;;;;;;;30.20;29.68;99552.84;7036269;28;20284;-82
2022/07/12 09:05:25;;;;;;;1.47;1.37;;;;;;;30.88;29.27;99540.22;7023251;28;20631;-82
2022/07/12 09:08:47;;;;;;;0.83;0.83;;;;;;;31.08;29.11;99550.81;7014974;28;21369;-81
2022/07/12 09:12:23;;;;;;;0.83;0.83;;;;;;;29.96;28.96;99560.59;7013193;28;20760;-81
2022/07/12 09:15:46;;;;;;;0.40;0.40;;;;;;;29.71;29.61;99550.88;7033022;28;20223;-82
2022/07/12 09:19:19;;;;;;;0.70;0.67;;;;;;;28.73;31.45;99510.91;7050238;28;20226;-82
2022/07/12 09:22:51;;;;;;;0.93;0.93;;;;;;;29.29;31.19;99551.19;7026768;28;20208;-81
2022/07/12 09:26:17;;;;;;;0.57;0.57;;;;;;;30.15;30.26;99551.00;7024068;28;20313;-81
2022/07/12 09:29:48;;;;;;;1.70;0.90;;;;;;;29.56;30.43;99542.88;7027013;28;20235;-81
2022/07/12 09:36:59;;;;;;;0.63;0.63;;;;;;;31.25;27.47;99534.19;7017587;28;20224;-82
2022/07/12 09:40:21;;;;;;;0.70;0.70;;;;;;;32.33;26.63;99544.28;7032722;28;20208;-82
2022/07/12 09:43:43;;;;;;;0.60;0.60;;;;;;;30.55;28.92;99541.63;7011427;28;20229;-81
2022/07/12 09:47:05;;;;;;;0.80;0.80;;;;;;;29.70;30.27;99503.91;7032325;28;20231;-82
2022/07/12 09:50:26;;;;;;;0.53;0.53;;;;;;;29.12;31.61;99548.19;7015838;28;20215;-81
2022/07/12 09:53:51;;;;;;;0.90;0.90;;;;;;;29.45;30.80;99554.47;7025019;28;20218;-82
2022/07/12 09:57:20;;;;;;;0.50;0.50;;;;;;;29.40;31.14;99552.63;7013026;28;20218;-81
2022/07/12 10:00:41;;;;;;;0.50;0.50;;;;;;;29.59;30.96;99552.53;7011187;28;20191;-83
2022/07/12 10:04:04;;;;;;;0.60;0.60;;;;;;;30.89;28.04;99521.56;7056156;28;20217;-80
2022/07/12 10:07:25;;;;;;;0.57;0.50;;;;;;;31.77;27.25;99527.63;7036570;28;20250;-79
2022/07/12 10:10:49;;;;;;;0.80;0.80;;;;;;;32.16;26.30;99532.25;7031953;28;20615;-81
2022/07/12 10:14:12;;;;;;;0.63;0.63;;;;;;;31.86;26.64;99552.75;7021702;28;20251;-80
2022/07/12 10:17:34;;;;;;;0.60;0.60;;;;;;;32.16;26.15;99529.47;7014318;28;20202;-82
2022/07/12 10:20:56;;;;;;;8.33;1.20;;;;;;;32.61;25.27;99523.19;7007895;28;20691;-80
2022/07/12 10:24:48;;;;;;;2.10;0.50;;;;;;;32.62;25.97;99524.84;7007269;28;20224;-80
2022/07/12 10:28:11;;;;;;;0.60;0.60;;;;;;;30.67;29.15;99549.44;7023201;28;20265;-80
2022/07/12 10:31:35;;;;;;;2.93;0.53;;;;;;;30.30;28.78;99547.84;7033677;28;20216;-79
2022/07/12 10:35:00;;;;;;;0.67;0.67;;;;;;;30.30;29.03;99547.03;7032595;28;20235;-79
2022/07/12 10:38:21;;;;;;;0.63;0.63;;;;;;;30.67;28.69;99539.09;7016741;28;20607;-79
2022/07/12 10:41:43;;;;;;;0.50;0.50;;;;;;;30.88;27.84;99537.44;7032551;28;20238;-80
2022/07/12 10:45:13;;;;;;;0.70;0.70;;;;;;;31.29;27.52;99542.72;7032850;28;20254;-80
2022/07/12 10:48:35;;;;;;;0.97;0.53;;;;;;;31.52;26.59;99533.97;7019441;28;20224;-79
2022/07/12 10:52:15;;;;;;;0.40;0.40;;;;;;;30.43;28.25;99524.69;7004811;28;20258;-81
2022/07/12 10:55:37;;;;;;;0.50;0.50;;;;;;;30.60;28.50;99529.56;7011636;28;20225;-82
2022/07/12 10:59:00;;;;;;;0.63;0.50;;;;;;;31.95;26.62;99522.91;7015608;28;20275;-81
2022/07/12 11:02:23;;;;;;;0.60;0.60;;;;;;;32.38;25.74;99498.59;7008664;28;20207;-82
2022/07/12 11:05:45;;;;;;;1.30;0.83;;;;;;;32.58;26.36;99515.50;7029570;28;20230;-81
2022/07/12 11:09:08;;;;;;;0.50;0.50;;;;;;;32.64;25.66;99491.81;7012669;28;20716;-79
2022/07/12 11:12:30;;;;;;;0.60;0.60;;;;;;;32.06;26.53;99518.63;7005763;28;20209;-79
2022/07/12 11:15:58;;;;;;;1.63;0.60;;;;;;;30.99;27.35;99474.75;7005974;28;20626;-80
2022/07/12 11:19:23;;;;;;;0.40;0.40;;;;;;;31.05;27.48;99519.97;7019713;28;20207;-80
2022/07/12 11:22:45;;;;;;;0.50;0.50;;;;;;;31.70;26.49;99518.06;7019374;28;20212;-79
2022/07/12 11:30:24;;;;;;;0.97;0.67;;;;;;;32.72;25.61;99504.94;7017221;28;20205;-80
2022/07/12 11:33:47;;;;;;;0.60;0.60;;;;;;;31.00;27.29;99509.81;7018363;28;20218;-80
2022/07/12 11:37:10;;;;;;;0.53;0.53;;;;;;;32.02;26.73;99507.28;7022768;28;20574;-81
2022/07/12 11:40:32;;;;;;;1.43;0.70;;;;;;;32.77;26.09;99510.38;7018020;28;20248;-80
2022/07/12 11:43:54;;;;;;;1.33;0.50;;;;;;;32.41;26.10;99498.75;7010733;28;20621;-80
2022/07/12 11:47:16;;;;;;;1.60;0.60;;;;;;;32.82;25.57;99484.22;7011221;28;20333;-80
2022/07/12 11:50:38;;;;;;;0.40;0.40;;;;;;;31.41;25.69;99482.44;7010793;28;20205;-80
2022/07/12 11:54:01;;;;;;;0.33;0.33;;;;;;;30.53;27.42;99509.66;7027486;28;20238;-80
2022/07/12 11:57:23;;;;;;;0.47;0.47;;;;;;;32.10;25.29;99508.44;7039384;28;20583;-79
2022/07/12 12:00:46;;;;;;;0.50;0.50;;;;;;;30.68;28.27;99518.50;7038393;28;20200;-80
2022/07/12 12:04:13;;;;;;;0.50;0.50;;;;;;;30.83;27.97;99518.06;7039297;28;20228;-80
2022/07/12 12:07:34;;;;;;;0.63;0.63;;;;;;;30.87;27.71;99482.03;7024352;28;20218;-80
2022/07/12 12:10:59;;;;;;;0.50;0.50;;;;;;;31.48;26.83;99513.44;7010283;28;20240;-80
2022/07/12 12:14:21;;;;;;;0.70;0.70;;;;;;;31.48;27.62;99507.84;7010312;28;20702;-80
2022/07/12 12:17:51;;;;;;;0.67;0.67;;;;;;;33.29;25.10;99492.25;7009523;28;20206;-80
2022/07/12 12:21:14;;;;;;;0.80;0.50;;;;;;;32.42;25.76;99475.28;7009868;28;20212;-80
2022/07/12 12:24:35;;;;;;;3.70;0.70;;;;;;;31.47;27.02;99464.41;7011136;28;20244;-80
2022/07/12 12:28:22;;;;;;;0.53;0.53;;;;;;;32.89;25.95;99476.16;7014530;28;20635;-80
2022/07/12 12:31:57;;;;;;;0.63;0.63;;;;;;;31.88;26.62;99467.59;7024206;28;20283;-80
2022/07/12 12:35:20;;;;;;;0.80;0.70;;;;;;;32.23;25.88;99465.56;7009933;28;20222;-80
2022/07/12 12:38:43;;;;;;;0.70;0.50;;;;;;;31.47;26.65;99447.69;7018530;28;20279;-80
2022/07/12 12:42:05;;;;;;;0.40;0.40;;;;;;;33.34;24.54;99450.13;7037852;28;20201;-80
2022/07/12 12:45:28;;;;;;;0.43;0.43;;;;;;;32.66;25.02;99441.22;7014423;28;20686;-81
2022/07/12 12:48:49;;;;;;;1.73;0.60;;;;;;;32.54;25.83;99466.22;7009275;28;20234;-80
2022/07/12 12:52:11;;;;;;;0.50;0.50;;;;;;;32.28;25.88;99441.16;7009568;28;20208;-80
2022/07/12 12:55:32;;;;;;;0.83;0.50;;;;;;;33.28;25.23;99464.63;7010060;28;20237;-80
2022/07/12 12:58:55;;;;;;;1.00;0.47;;;;;;;33.59;24.74;99457.53;7020919;28;20205;-80
2022/07/12 13:02:18;;;;;;;1.27;0.60;;;;;;;32.94;24.87;99440.44;7030957;28;20207;-80
2022/07/12 13:05:41;;;;;;;0.50;0.50;;;;;;;32.78;25.44;99450.53;7031885;28;20247;-81
2022/07/12 13:09:03;;;;;;;0.70;0.70;;;;;;;32.38;24.87;99434.41;7023507;28;20225;-79
2022/07/12 13:12:25;;;;;;;0.57;0.50;;;;;;;32.14;25.51;99468.38;7029211;28;20203;-80
2022/07/12 13:15:46;;;;;;;2.30;0.90;;;;;;;32.25;25.98;99460.53;7016160;28;20235;-81
2022/07/12 13:19:09;;;;;;;0.50;0.50;;;;;;;32.43;25.39;99451.78;7038660;28;20201;-80
2022/07/12 13:22:31;;;;;;;0.60;0.60;;;;;;;32.30;25.68;99458.38;7034281;28;20281;-80
2022/07/12 13:25:53;;;;;;;0.63;0.37;;;;;;;32.96;24.45;99452.09;7021042;28;20229;-80
2022/07/12 13:29:24;;;;;;;0.60;0.60;;;;;;;32.99;24.09;99454.25;7024713;28;20718;-80
2022/07/12 13:32:46;;;;;;;0.37;0.37;;;;;;;33.08;23.77;99443.03;7021619;28;20299;-80
2022/07/12 13:36:09;;;;;;;0.60;0.60;;;;;;;32.00;25.32;99467.75;7016269;28;20216;-80
2022/07/12 13:43:10;;;;;;;1.00;0.73;;;;;;;31.66;26.05;99461.31;7014726;28;20224;-79
2022/07/12 13:46:31;;;;;;;0.50;0.50;;;;;;;32.43;24.91;99429.44;7023174;28;20221;-80
2022/07/12 13:49:53;;;;;;;0.40;0.40;;;;;;;32.69;24.42;99379.91;7012587;28;20235;-80
2022/07/12 13:53:16;;;;;;;0.30;0.30;;;;;;;33.68;23.62;99458.28;7010077;28;20224;-81
2022/07/12 13:56:38;;;;;;;0.50;0.50;;;;;;;33.03;24.13;99434.81;7034484;28;20231;-80
2022/07/12 14:00:01;;;;;;;0.47;0.47;;;;;;;33.08;23.84;99460.59;7033198;28;20220;-80
2022/07/12 14:03:22;;;;;;;0.30;0.30;;;;;;;32.34;25.20;99447.38;7034266;28;20230;-80
2022/07/12 14:06:44;;;;;;;0.73;0.60;;;;;;;33.50;24.11;99453.16;7031217;28;20265;-80
2022/07/12 14:10:08;;;;;;;1.50;0.50;;;;;;;34.17;23.33;99456.56;7021680;28;20208;-81
2022/07/12 14:13:30;;;;;;;1.60;0.80;;;;;;;32.99;23.81;99462.63;7031823;28;20232;-80
2022/07/12 14:16:51;;;;;;;0.70;0.70;;;;;;;33.21;24.26;99451.19;7006995;28;20677;-80
2022/07/12 14:20:14;;;;;;;0.57;0.57;;;;;;;33.54;24.11;99440.13;7003885;28;20216;-78
2022/07/12 14:23:37;;;;;;;3.50;0.60;;;;;;;33.60;23.48;99442.38;7004732;28;20225;-80
2022/07/12 14:26:59;;;;;;;0.60;0.60;;;;;;;31.80;25.09;99446.09;7008924;28;20216;-80
2022/07/12 14:30:22;;;;;;;1.60;0.60;;;;;;;31.70;25.91;99428.81;7027952;28;20204;-81
2022/07/12 14:33:43;;;;;;;2.20;0.53;;;;;;;32.28;25.16;99402.06;7025473;28;20255;-80
2022/07/12 14:37:05;;;;;;;1.27;0.43;;;;;;;32.25;25.14;99435.41;7023279;28;20208;-81
2022/07/12 14:40:27;;;;;;;0.37;0.37;;;;;;;32.88;24.44;99436.22;7015000;28;20211;-80
2022/07/12 14:43:50;;;;;;;1.60;0.63;;;;;;;32.01;24.67;99415.56;7025056;28;20283;-80
2022/07/12 14:47:48;;;;;;;0.83;0.50;;;;;;;32.43;24.68;99435.03;7008590;28;20228;-80
2022/07/12 14:51:10;;;;;;;0.53;0.53;;;;;;;33.26;23.98;99444.56;7016824;28;20645;-81
2022/07/12 14:54:32;;;;;;;0.70;0.70;;;;;;;33.75;23.53;99427.78;7004465;28;20235;-80
2022/07/12 14:57:53;;;;;;;1.17;1.00;;;;;;;33.67;23.54;99441.84;7004784;28;20438;-80
2022/07/12 15:01:17;;;;;;;1.83;0.57;;;;;;;32.81;24.52;99376.41;7004437;28;20213;-80
2022/07/12 15:04:39;;;;;;;2.07;0.80;;;;;;;32.51;24.50;99405.44;7005227;28;20268;-80
2022/07/12 15:08:00;;;;;;;0.50;0.50;;;;;;;32.63;24.66;99422.31;7004688;28;20233;-80
2022/07/12 15:11:22;;;;;;;0.40;0.40;;;;;;;32.87;24.94;99423.41;7019020;28;20240;-81
2022/07/12 15:14:43;;;;;;;1.43;0.60;;;;;;;31.78;25.92;99420.47;7024852;28;21242;-80
2022/07/12 15:18:06;;;;;;;1.13;0.70;;;;;;;31.65;26.05;99410.28;7034687;28;20216;-80
2022/07/12 15:21:28;;;;;;;0.53;0.53;;;;;;;31.94;25.62;99413.25;7032102;28;20203;-78
2022/07/12 15:24:50;;;;;;;1.60;0.63;;;;;;;32.42;25.12;99357.19;7038892;28;20219;-78
2022/07/12 15:28:11;;;;;;;0.87;0.53;;;;;;;31.95;25.26;99383.41;7039773;28;20257;-78
2022/07/12 15:31:33;;;;;;;0.73;0.73;;;;;;;32.36;25.34;99408.78;7047148;28;20232;-78
2022/07/12 15:34:56;;;;;;;0.70;0.70;;;;;;;32.66;24.72;99413.28;7045161;28;20573;-78
2022/07/12 15:38:18;;;;;;;0.77;0.77;;;;;;;32.38;25.29;99404.47;7039311;28;20219;-78
2022/07/12 15:41:39;;;;;;;0.77;0.77;;;;;;;33.02;24.56;99416.41;7040172;28;20565;-78
2022/07/12 15:45:01;;;;;;;1.27;0.60;;;;;;;33.11;24.97;99400.41;7032183;28;20268;-78
2022/07/12 15:48:23;;;;;;;0.70;0.70;;;;;;;32.93;25.25;99399.69;7011423;28;20654;-79
2022/07/12 15:55:25;;;;;;;0.80;0.80;;;;;;;32.83;25.03;99399.28;7011027;28;20278;-78
2022/07/12 15:58:47;;;;;;;1.73;1.47;;;;;;;32.83;25.49;99405.66;7010761;28;20210;-78
2022/07/12 16:02:09;;;;;;;9.47;4.00;;;;;;;32.93;25.45;99404.47;7012341;28;20196;-81
2022/07/12 16:05:30;;;;;;;2.10;1.03;;;;;;;32.64;25.36;99402.44;7014319;28;20225;-78
2022/07/12 16:08:53;;;;;;;2.90;0.80;;;;;;;32.45;25.12;99378.84;7013838;28;20227;-78
2022/07/12 16:12:15;;;;;;;2.07;0.90;;;;;;;32.97;24.87;99409.03;7030640;28;20208;-79
2022/07/12 16:15:37;;;;;;;0.97;0.70;;;;;;;32.74;24.53;99404.03;7041058;28;20288;-80
2022/07/12 16:18:58;;;;;;;1.17;0.53;;;;;;;32.80;23.59;99392.38;7040061;28;20245;-79
2022/07/12 16:22:20;;;;;;;1.43;0.80;;;;;;;32.95;23.71;99399.38;7025170;28;20271;-80